createdAt,value
2022-12-04T00:01:09.963Z,16.87
2022-12-04T00:03:36.786Z,17.47
2022-12-04T00:06:30.340Z,15.13
2022-12-04T00:08:56.903Z,16.03
2022-12-04T00:11:26.477Z,17.80
2022-12-04T00:13:53.120Z,17.43
2022-12-04T00:16:22.671Z,16.90
2022-12-04T00:18:50.873Z,17.07
2022-12-04T00:21:19.368Z,16.67
2022-12-04T00:23:46.494Z,19.63
2022-12-04T00:26:16.441Z,19.30
2022-12-04T00:28:43.705Z,16.57
2022-12-04T00:31:18.378Z,17.87
2022-12-04T00:33:45.540Z,18.73
2022-12-04T00:36:14.390Z,16.70
2022-12-04T00:38:42.968Z,16.50
2022-12-04T00:41:11.194Z,15.97
2022-12-04T00:43:37.603Z,16.23
2022-12-04T00:46:04.285Z,14.63
2022-12-04T00:48:30.782Z,16.50
2022-12-04T00:51:12.215Z,18.20
2022-12-04T00:53:39.291Z,16.60
2022-12-04T00:56:07.831Z,16.47
2022-12-04T00:58:34.340Z,14.97
2022-12-04T01:01:15.546Z,17.10
2022-12-04T01:03:42.470Z,17.53
2022-12-04T01:06:25.064Z,17.17
2022-12-04T01:08:52.939Z,19.43
2022-12-04T01:11:21.259Z,18.23
2022-12-04T01:13:47.787Z,18.83
2022-12-04T01:16:18.112Z,19.80
2022-12-04T01:18:44.940Z,17.20
2022-12-04T01:21:12.532Z,16.37
2022-12-04T01:23:38.935Z,16.37
2022-12-04T01:26:05.535Z,19.03
2022-12-04T01:28:32.049Z,17.97
2022-12-04T01:31:05.951Z,18.17
2022-12-04T01:33:34.595Z,19.63
2022-12-04T01:36:02.812Z,17.60
2022-12-04T01:38:29.851Z,19.10
2022-12-04T01:40:57.374Z,18.00
2022-12-04T01:43:25.065Z,16.77
2022-12-04T01:45:57.560Z,17.57
2022-12-04T01:48:34.787Z,17.40
2022-12-04T01:51:18.554Z,18.03
2022-12-04T01:54:00.613Z,16.37
2022-12-04T01:56:41.392Z,17.23
2022-12-04T01:59:09.237Z,19.27
2022-12-04T02:01:53.621Z,17.37
2022-12-04T02:04:20.544Z,18.33
2022-12-04T02:06:47.009Z,17.53
2022-12-04T02:09:13.707Z,17.20
2022-12-04T02:11:53.165Z,18.27
2022-12-04T02:14:46.913Z,19.17
2022-12-04T02:17:33.017Z,15.80
2022-12-04T02:20:17.653Z,17.10
2022-12-04T02:23:19.292Z,18.87
2022-12-04T02:26:01.533Z,19.23
2022-12-04T02:28:32.149Z,17.10
2022-12-04T02:31:02.344Z,18.20
2022-12-04T02:33:35.970Z,17.27
2022-12-04T02:36:13.770Z,17.40
2022-12-04T02:38:45.156Z,18.03
2022-12-04T02:41:25.237Z,16.53
2022-12-04T02:43:56.296Z,18.97
2022-12-04T02:46:37.407Z,19.93
2022-12-04T02:49:09.408Z,17.67
2022-12-04T02:51:40.107Z,17.77
2022-12-04T02:54:16.794Z,19.63
2022-12-04T02:56:47.431Z,19.43
2022-12-04T02:59:23.177Z,19.77
2022-12-04T03:01:55.789Z,20.27
2022-12-04T03:04:25.882Z,19.53
2022-12-04T03:07:06.804Z,16.97
2022-12-04T03:09:39.002Z,17.40
2022-12-04T03:12:19.262Z,18.40
2022-12-04T03:14:56.174Z,19.87
2022-12-04T03:17:47.648Z,18.67
2022-12-04T03:20:15.295Z,19.60
2022-12-04T03:22:46.486Z,20.30
2022-12-04T03:25:13.900Z,18.67
2022-12-04T03:27:43.312Z,18.53
2022-12-04T03:30:18.757Z,18.70
2022-12-04T03:32:51.829Z,17.90
2022-12-04T03:35:47.654Z,19.47
2022-12-04T03:38:23.898Z,20.40
2022-12-04T03:41:04.596Z,18.73
2022-12-04T03:43:56.627Z,19.33
2022-12-04T03:47:01.031Z,18.33
2022-12-04T03:49:53.691Z,18.97
2022-12-04T03:52:33.650Z,18.90
2022-12-04T03:55:23.833Z,17.40
2022-12-04T03:57:52.679Z,19.57
2022-12-04T04:00:22.234Z,18.90
2022-12-04T04:02:54.436Z,19.73
2022-12-04T04:05:22.598Z,19.63
2022-12-04T04:08:18.116Z,19.97
2022-12-04T04:10:45.505Z,18.83
2022-12-04T04:13:35.590Z,18.00
2022-12-04T04:16:25.408Z,16.37
2022-12-04T04:19:12.743Z,19.57
2022-12-04T04:22:00.161Z,18.93
2022-12-04T04:24:31.025Z,17.17
2022-12-04T04:26:59.445Z,18.47
2022-12-04T04:29:26.268Z,19.47
2022-12-04T04:32:15.105Z,18.27
2022-12-04T04:34:49.090Z,18.17
2022-12-04T04:37:39.575Z,20.33
2022-12-04T04:40:33.853Z,18.40
2022-12-04T04:43:09.544Z,18.83
2022-12-04T04:45:45.774Z,17.83
2022-12-04T04:48:20.267Z,18.57
2022-12-04T04:50:47.228Z,19.33
2022-12-04T04:53:18.723Z,20.10
2022-12-04T04:55:45.682Z,19.57
2022-12-04T04:58:15.528Z,18.40
2022-12-04T05:00:57.923Z,19.30
2022-12-04T05:03:24.962Z,19.10
2022-12-04T05:05:51.635Z,16.77
2022-12-04T05:08:18.110Z,17.77
2022-12-04T05:10:44.611Z,19.20
2022-12-04T05:13:14.866Z,20.20
2022-12-04T05:15:41.615Z,19.67
2022-12-04T05:18:08.958Z,20.50
2022-12-04T05:20:38.741Z,20.53
2022-12-04T05:23:05.177Z,20.83
2022-12-04T05:25:31.610Z,17.33
2022-12-04T05:27:58.281Z,18.17
2022-12-04T05:30:24.716Z,17.93
2022-12-04T05:32:51.234Z,17.33
2022-12-04T05:35:17.651Z,18.30
2022-12-04T05:37:45.600Z,20.27
2022-12-04T05:40:12.322Z,19.33
2022-12-04T05:42:38.829Z,17.60
2022-12-04T05:45:05.701Z,16.07
2022-12-04T05:47:32.094Z,17.40
2022-12-04T05:49:58.629Z,19.27
2022-12-04T05:52:25.182Z,18.77
2022-12-04T05:54:52.653Z,18.57
2022-12-04T05:57:19.075Z,17.40
2022-12-04T05:59:45.532Z,19.23
2022-12-04T06:02:11.995Z,21.07
2022-12-04T06:04:38.540Z,18.00
2022-12-04T06:07:05.299Z,19.07
2022-12-04T06:09:31.727Z,17.90
2022-12-04T06:11:58.918Z,17.97
2022-12-04T06:14:25.902Z,19.00
2022-12-04T06:16:52.573Z,17.57
2022-12-04T06:19:22.445Z,18.77
2022-12-04T06:21:51.515Z,21.10
2022-12-04T06:24:21.650Z,19.57
2022-12-04T06:27:18.725Z,23.03
2022-12-04T06:29:35.645Z,19.17
2022-12-04T06:32:02.338Z,19.93
2022-12-04T06:34:29.009Z,20.73
2022-12-04T06:36:55.452Z,22.37
2022-12-04T06:39:21.969Z,20.37
2022-12-04T06:41:48.455Z,19.90
2022-12-04T06:44:16.140Z,20.57
2022-12-04T06:46:46.923Z,19.97
2022-12-04T06:49:14.270Z,21.07
2022-12-04T06:51:41.817Z,21.83
2022-12-04T06:54:09.722Z,23.33
2022-12-04T06:56:36.186Z,17.27
2022-12-04T06:59:04.162Z,21.00
2022-12-04T07:01:32.850Z,16.70
2022-12-04T07:04:00.986Z,19.93
2022-12-04T07:06:30.306Z,21.47
2022-12-04T07:09:17.683Z,19.27
2022-12-04T07:11:45.229Z,19.63
2022-12-04T07:14:13.007Z,17.93
2022-12-04T07:16:41.986Z,19.07
2022-12-04T07:19:10.737Z,20.23
2022-12-04T07:21:37.221Z,19.70
2022-12-04T07:24:04.156Z,20.33
2022-12-04T07:26:31.346Z,18.93
2022-12-04T07:29:00.364Z,21.30
2022-12-04T07:31:28.901Z,20.30
2022-12-04T07:33:56.165Z,18.77
2022-12-04T07:36:24.041Z,18.37
2022-12-04T07:38:51.307Z,19.57
2022-12-04T07:41:20.544Z,16.63
2022-12-04T07:43:47.319Z,18.90
2022-12-04T07:46:17.230Z,17.47
2022-12-04T07:48:44.141Z,18.07
2022-12-04T07:51:15.942Z,19.40
2022-12-04T07:53:43.556Z,19.30
2022-12-04T07:56:11.485Z,17.77
2022-12-04T07:58:38.284Z,17.50
2022-12-04T08:01:10.861Z,18.07
2022-12-04T08:03:42.101Z,18.07
2022-12-04T08:06:12.286Z,18.60
2022-12-04T08:08:38.732Z,18.10
2022-12-04T08:11:07.619Z,19.23
2022-12-04T08:13:34.490Z,19.20
2022-12-04T08:16:05.043Z,19.93
2022-12-04T08:18:32.271Z,18.93
2022-12-04T08:21:16.335Z,15.00
2022-12-04T08:23:44.300Z,18.47
2022-12-04T08:26:11.604Z,19.53
2022-12-04T08:28:40.599Z,17.60
2022-12-04T08:31:12.867Z,21.47
2022-12-04T08:33:39.644Z,19.07
2022-12-04T08:36:08.103Z,19.30
2022-12-04T08:38:34.822Z,18.57
2022-12-04T08:41:07.032Z,20.57
2022-12-04T08:43:33.629Z,19.83
2022-12-04T08:46:06.148Z,20.07
2022-12-04T08:48:33.612Z,19.23
2022-12-04T08:51:01.061Z,20.50
2022-12-04T08:53:27.505Z,21.13
2022-12-04T08:55:55.008Z,19.13
2022-12-04T08:58:22.019Z,19.57
2022-12-04T09:00:48.686Z,17.33
2022-12-04T09:03:17.582Z,21.27
2022-12-04T09:05:45.964Z,19.60
2022-12-04T09:08:17.616Z,18.30
2022-12-04T09:10:44.485Z,21.47
2022-12-04T09:13:10.894Z,19.83
2022-12-04T09:15:41.008Z,19.77
2022-12-04T09:18:07.982Z,17.47
2022-12-04T09:20:34.583Z,19.67
2022-12-04T09:23:04.379Z,21.13
2022-12-04T09:25:34.656Z,23.40
2022-12-04T09:28:01.170Z,22.30
2022-12-04T09:30:27.588Z,20.23
2022-12-04T09:32:54.059Z,19.67
2022-12-04T09:35:20.484Z,19.60
2022-12-04T09:37:46.913Z,20.60
2022-12-04T09:40:37.158Z,21.33
2022-12-04T09:43:16.378Z,21.07
2022-12-04T09:45:49.440Z,23.13
2022-12-04T09:48:18.026Z,20.70
2022-12-04T09:50:48.635Z,20.40
2022-12-04T09:53:34.679Z,18.53
2022-12-04T09:56:06.512Z,23.10
2022-12-04T09:58:41.779Z,20.57
2022-12-04T10:01:22.048Z,20.73
2022-12-04T10:03:49.142Z,15.40
2022-12-04T10:06:31.061Z,20.53
2022-12-04T10:09:06.286Z,20.53
2022-12-04T10:11:48.224Z,18.70
2022-12-04T10:14:28.379Z,20.37
2022-12-04T10:17:13.521Z,22.60
2022-12-04T10:20:11.622Z,18.83
2022-12-04T10:23:25.810Z,17.97
2022-12-04T10:25:54.869Z,19.43
2022-12-04T10:28:27.131Z,16.97
2022-12-04T10:30:57.845Z,19.37
2022-12-04T10:33:37.534Z,18.83
2022-12-04T10:36:06.003Z,18.40
2022-12-04T10:38:55.570Z,19.50
2022-12-04T10:41:31.174Z,18.00
2022-12-04T10:43:57.584Z,20.53
2022-12-04T10:46:27.652Z,18.93
2022-12-04T10:49:01.370Z,18.80
2022-12-04T10:51:32.179Z,15.43
2022-12-04T10:53:59.883Z,15.07
2022-12-04T10:56:26.773Z,17.77
2022-12-04T10:58:59.031Z,18.03
2022-12-04T11:01:26.633Z,15.70
2022-12-04T11:04:02.051Z,17.40
2022-12-04T11:06:29.658Z,15.60
2022-12-04T11:08:57.335Z,17.53
2022-12-04T11:11:33.164Z,17.07
2022-12-04T11:14:13.470Z,19.10
2022-12-04T11:16:46.342Z,16.43
2022-12-04T11:19:20.077Z,15.93
2022-12-04T11:21:47.004Z,16.67
2022-12-04T11:24:22.479Z,15.10
2022-12-04T11:26:49.568Z,15.07
2022-12-04T11:29:18.669Z,13.63
2022-12-04T11:31:53.116Z,15.33
2022-12-04T11:34:22.427Z,15.47
2022-12-04T11:36:56.388Z,15.73
2022-12-04T11:39:40.369Z,14.40
2022-12-04T11:42:19.557Z,14.13
2022-12-04T11:44:55.373Z,13.07
2022-12-04T11:47:26.016Z,12.80
2022-12-04T11:50:24.923Z,12.73
2022-12-04T11:53:05.397Z,13.43
2022-12-04T11:55:42.723Z,11.83
2022-12-04T11:58:27.713Z,12.03
2022-12-04T12:01:13.945Z,13.80
2022-12-04T12:04:07.643Z,11.97
2022-12-04T12:06:56.588Z,12.90
2022-12-04T12:09:24.159Z,12.63
2022-12-04T12:12:02.675Z,13.23
2022-12-04T12:15:00.527Z,12.97
2022-12-04T12:17:30.142Z,14.07
2022-12-04T12:20:19.858Z,12.43
2022-12-04T12:23:02.266Z,15.97
2022-12-04T12:25:52.141Z,14.90
2022-12-04T12:28:25.076Z,13.33
2022-12-04T12:31:05.954Z,14.73
2022-12-04T12:34:11.156Z,13.73
2022-12-04T12:36:47.341Z,13.50
2022-12-04T12:39:25.157Z,13.30
2022-12-04T12:41:55.332Z,12.73
2022-12-04T12:44:30.238Z,12.23
2022-12-04T12:47:08.086Z,12.77
2022-12-04T12:49:50.075Z,12.83
2022-12-04T12:52:34.347Z,12.47
2022-12-04T12:55:16.096Z,11.13
2022-12-04T12:57:47.991Z,12.37
2022-12-04T13:00:21.536Z,10.60
2022-12-04T13:03:05.080Z,11.13
2022-12-04T13:05:38.083Z,11.57
2022-12-04T13:08:25.029Z,10.37
2022-12-04T13:11:06.754Z,11.30
2022-12-04T13:13:38.927Z,11.23
2022-12-04T13:16:14.866Z,11.10
2022-12-04T13:19:12.302Z,12.17
2022-12-04T13:22:26.598Z,11.73
2022-12-04T13:25:04.748Z,10.73
2022-12-04T13:28:19.273Z,10.67
2022-12-04T13:30:56.472Z,10.47
2022-12-04T13:33:37.997Z,10.87
2022-12-04T13:36:14.785Z,11.37
2022-12-04T13:38:58.072Z,11.03
2022-12-04T13:41:27.237Z,11.50
2022-12-04T13:43:55.499Z,10.80
2022-12-04T13:46:42.310Z,10.90
2022-12-04T13:49:17.923Z,10.37
2022-12-04T13:51:52.162Z,11.17
2022-12-04T13:54:35.917Z,9.80
2022-12-04T13:57:22.623Z,10.13
2022-12-04T13:59:49.737Z,10.10
2022-12-04T14:02:27.464Z,10.00
2022-12-04T14:04:57.568Z,10.37
2022-12-04T14:07:28.948Z,9.97
2022-12-04T14:09:58.580Z,9.87
2022-12-04T14:12:32.026Z,10.97
2022-12-04T14:15:03.052Z,9.23
2022-12-04T14:17:33.475Z,10.03
2022-12-04T14:20:07.558Z,11.13
2022-12-04T14:22:35.567Z,9.13
2022-12-04T14:25:12.415Z,10.33
2022-12-04T14:27:41.863Z,9.90
2022-12-04T14:30:29.675Z,9.77
2022-12-04T14:33:09.114Z,10.27
2022-12-04T14:35:45.080Z,9.33
2022-12-04T14:38:19.380Z,10.33
2022-12-04T14:40:49.800Z,10.53
2022-12-04T14:43:22.512Z,10.50
2022-12-04T14:45:58.193Z,10.10
2022-12-04T14:48:40.177Z,10.57
2022-12-04T14:51:30.560Z,10.13
2022-12-04T14:54:25.402Z,10.47
2022-12-04T14:57:17.302Z,10.10
2022-12-04T14:59:47.110Z,10.27
2022-12-04T15:02:19.608Z,11.73
2022-12-04T15:04:47.988Z,16.27
2022-12-04T15:07:23.971Z,13.30
2022-12-04T15:10:14.519Z,11.03
2022-12-04T15:12:52.388Z,10.77
2022-12-04T15:15:28.108Z,14.43
2022-12-04T15:18:02.497Z,12.40
2022-12-04T15:20:50.027Z,12.90
2022-12-04T15:23:21.519Z,13.00
2022-12-04T15:25:54.932Z,12.80
2022-12-04T15:28:28.975Z,14.57
2022-12-04T15:30:58.037Z,16.70
2022-12-04T15:33:28.936Z,16.13
2022-12-04T15:36:02.800Z,16.90
2022-12-04T15:38:29.614Z,15.90
2022-12-04T15:40:59.159Z,16.90
2022-12-04T15:43:41.208Z,17.70
2022-12-04T15:46:21.043Z,17.93
2022-12-04T15:48:48.092Z,17.20
2022-12-04T15:51:20.246Z,18.27
2022-12-04T15:53:47.813Z,19.10
2022-12-04T15:56:19.610Z,18.23
2022-12-04T15:58:54.737Z,17.93
2022-12-04T16:01:22.018Z,18.30
2022-12-04T16:03:53.977Z,20.47
2022-12-04T16:06:31.231Z,20.30
2022-12-04T16:09:21.847Z,18.80
2022-12-04T16:11:58.154Z,20.13
2022-12-04T16:14:24.575Z,18.70
2022-12-04T16:16:52.847Z,18.30
2022-12-04T16:19:30.268Z,18.60
2022-12-04T16:21:57.701Z,20.23
2022-12-04T16:24:24.564Z,18.30
2022-12-04T16:26:52.637Z,18.73
2022-12-04T16:29:19.165Z,20.20
2022-12-04T16:31:45.918Z,20.67
2022-12-04T16:34:13.777Z,18.37
2022-12-04T16:36:40.530Z,17.37
2022-12-04T16:39:07.051Z,19.37
2022-12-04T16:41:33.654Z,17.47
2022-12-04T16:44:00.752Z,17.60
2022-12-04T16:46:28.903Z,20.13
2022-12-04T16:48:55.962Z,19.03
2022-12-04T16:51:25.581Z,19.97
2022-12-04T16:53:53.099Z,20.03
2022-12-04T16:56:20.286Z,17.57
2022-12-04T16:58:47.009Z,18.27
2022-12-04T17:01:25.716Z,19.97
2022-12-04T17:03:52.754Z,19.37
2022-12-04T17:06:19.625Z,18.40
2022-12-04T17:08:46.347Z,19.03
2022-12-04T17:11:14.489Z,20.40
2022-12-04T17:13:41.930Z,17.60
2022-12-04T17:16:09.061Z,24.83
2022-12-04T17:18:35.533Z,19.67
2022-12-04T17:21:09.536Z,21.70
2022-12-04T17:23:36.523Z,21.73
2022-12-04T17:26:04.636Z,20.33
2022-12-04T17:28:31.373Z,20.63
2022-12-04T17:30:58.187Z,19.37
2022-12-04T17:33:25.641Z,19.03
2022-12-04T17:35:54.042Z,19.43
2022-12-04T17:38:20.584Z,18.43
2022-12-04T17:41:01.440Z,18.47
2022-12-04T17:43:29.539Z,18.00
2022-12-04T17:45:56.241Z,18.60
2022-12-04T17:48:23.298Z,19.20
2022-12-04T17:50:49.898Z,19.03
2022-12-04T17:53:16.651Z,21.30
2022-12-04T17:55:43.090Z,17.40
2022-12-04T17:58:09.563Z,18.03
2022-12-04T18:00:36.829Z,18.73
2022-12-04T18:03:03.420Z,18.13
2022-12-04T18:05:31.974Z,17.23
2022-12-04T18:07:59.343Z,17.33
2022-12-04T18:10:25.810Z,19.37
2022-12-04T18:12:52.283Z,16.90
2022-12-04T18:15:18.693Z,17.17
2022-12-04T18:17:45.506Z,20.03
2022-12-04T18:20:12.280Z,18.20
2022-12-04T18:22:38.726Z,17.70
2022-12-04T18:25:07.331Z,17.40
2022-12-04T18:27:36.711Z,17.20
2022-12-04T18:30:07.490Z,19.33
2022-12-04T18:32:34.049Z,18.43
2022-12-04T18:35:00.460Z,19.43
2022-12-04T18:37:27.000Z,17.93
2022-12-04T18:39:53.590Z,17.40
2022-12-04T18:42:20.273Z,18.73
2022-12-04T18:44:47.071Z,14.97
2022-12-04T18:47:13.513Z,17.23
2022-12-04T18:49:39.990Z,15.23
2022-12-04T18:52:06.504Z,17.17
2022-12-04T18:54:33.015Z,18.20
2022-12-04T18:56:59.452Z,14.77
2022-12-04T18:59:27.013Z,15.23
2022-12-04T19:01:54.052Z,17.30
2022-12-04T19:04:23.149Z,16.63
2022-12-04T19:06:53.338Z,16.53
2022-12-04T19:09:40.978Z,14.63
2022-12-04T19:12:10.297Z,15.23
2022-12-04T19:14:38.569Z,15.97
2022-12-04T19:17:05.158Z,14.97
2022-12-04T19:19:32.055Z,15.40
2022-12-04T19:21:59.181Z,15.63
2022-12-04T19:24:25.629Z,17.03
2022-12-04T19:26:54.183Z,15.67
2022-12-04T19:29:20.618Z,17.23
2022-12-04T19:31:47.234Z,18.13
2022-12-04T19:34:13.718Z,17.87
2022-12-04T19:36:41.171Z,17.63
2022-12-04T19:39:07.659Z,20.47
2022-12-04T19:41:35.275Z,16.40
2022-12-04T19:44:07.845Z,19.20
2022-12-04T19:46:41.681Z,17.43
2022-12-04T19:49:08.242Z,20.10
2022-12-04T19:51:38.052Z,19.20
2022-12-04T19:54:05.464Z,17.93
2022-12-04T19:56:33.268Z,15.80
2022-12-04T19:59:03.153Z,16.90
2022-12-04T20:01:32.274Z,17.33
2022-12-04T20:04:00.303Z,18.87
2022-12-04T20:06:28.373Z,18.97
2022-12-04T20:08:57.632Z,18.83
2022-12-04T20:11:24.720Z,16.93
2022-12-04T20:13:55.487Z,18.00
2022-12-04T20:16:24.315Z,19.20
2022-12-04T20:18:51.118Z,18.23
2022-12-04T20:21:18.565Z,19.93
2022-12-04T20:23:49.367Z,20.07
2022-12-04T20:26:19.624Z,18.83
2022-12-04T20:28:46.630Z,18.17
2022-12-04T20:31:26.748Z,18.60
2022-12-04T20:33:55.305Z,19.37
2022-12-04T20:36:23.884Z,19.50
2022-12-04T20:38:53.098Z,17.97
2022-12-04T20:41:20.258Z,17.83
2022-12-04T20:43:47.854Z,19.63
2022-12-04T20:46:21.631Z,17.83
2022-12-04T20:48:49.394Z,18.90
2022-12-04T20:51:21.215Z,17.43
2022-12-04T20:53:49.701Z,17.23
2022-12-04T20:56:17.114Z,18.67
2022-12-04T20:58:43.545Z,17.27
2022-12-04T21:01:17.164Z,16.30
2022-12-04T21:03:45.592Z,19.90
2022-12-04T21:06:27.294Z,17.87
2022-12-04T21:09:01.944Z,15.73
2022-12-04T21:11:37.935Z,18.30
2022-12-04T21:14:27.127Z,16.40
2022-12-04T21:16:53.548Z,16.03
2022-12-04T21:19:21.498Z,15.17
2022-12-04T21:21:48.690Z,16.87
2022-12-04T21:24:17.267Z,17.00
2022-12-04T21:26:43.795Z,16.23
2022-12-04T21:29:10.755Z,15.43
2022-12-04T21:31:38.129Z,17.57
2022-12-04T21:34:06.846Z,15.90
2022-12-04T21:36:33.771Z,14.97
2022-12-04T21:39:00.526Z,14.90
2022-12-04T21:41:46.055Z,14.73
2022-12-04T21:44:18.075Z,16.83
2022-12-04T21:46:45.519Z,14.57
2022-12-04T21:49:13.625Z,14.90
2022-12-04T21:51:56.656Z,15.90
2022-12-04T21:54:23.576Z,14.93
2022-12-04T21:56:50.036Z,15.13
2022-12-04T21:59:16.539Z,13.77
2022-12-04T22:01:43.153Z,15.73
2022-12-04T22:04:09.636Z,14.93
2022-12-04T22:06:36.219Z,15.83
2022-12-04T22:09:05.734Z,14.30
2022-12-04T22:11:32.299Z,13.97
2022-12-04T22:13:58.795Z,14.30
2022-12-04T22:16:30.249Z,17.03
2022-12-04T22:19:00.093Z,16.93
2022-12-04T22:21:27.887Z,16.60
2022-12-04T22:23:59.924Z,16.20
2022-12-04T22:26:27.832Z,15.53
2022-12-04T22:28:55.078Z,16.77
2022-12-04T22:31:23.523Z,15.93
2022-12-04T22:33:52.922Z,16.37
2022-12-04T22:36:22.853Z,15.07
2022-12-04T22:41:36.026Z,14.20
2022-12-04T22:44:02.504Z,16.23
2022-12-04T22:46:29.199Z,14.37
2022-12-04T22:48:55.753Z,14.17
2022-12-04T22:51:22.848Z,14.47
2022-12-04T22:53:52.050Z,15.50
2022-12-04T22:56:30.057Z,16.93
2022-12-04T22:58:58.015Z,15.37
2022-12-04T23:01:30.621Z,16.17
2022-12-04T23:03:57.438Z,14.70
2022-12-04T23:06:25.938Z,16.37
2022-12-04T23:08:57.533Z,16.47
2022-12-04T23:11:25.375Z,13.93
2022-12-04T23:13:54.142Z,13.87
2022-12-04T23:16:22.420Z,15.00
2022-12-04T23:18:49.578Z,14.83
2022-12-04T23:21:17.642Z,15.53
2022-12-04T23:23:45.865Z,13.97
2022-12-04T23:26:15.451Z,12.20
2022-12-04T23:28:42.544Z,16.17
2022-12-04T23:31:10.153Z,14.00
2022-12-04T23:33:36.881Z,14.33
2022-12-04T23:36:05.013Z,14.07
2022-12-04T23:38:31.616Z,15.50
2022-12-04T23:41:06.749Z,14.37
2022-12-04T23:43:33.912Z,13.87
2022-12-04T23:46:02.532Z,13.20
2022-12-04T23:48:32.540Z,12.90
2022-12-04T23:50:59.167Z,12.50
2022-12-04T23:53:25.949Z,13.43
2022-12-04T23:56:02.376Z,14.30
2022-12-04T23:58:28.803Z,14.90
